Time;durP1;ratioP1;P1;durP2;ratioP2;P2;SDS_P1;SDS_P2;PMS_P1;PMS_P2;Temp;Humidity;BMP_temperature;BMP_pressure;BME280_temperature;BME280_humidity;BME280_pressure;Samples;Min_cycle;Max_cycle;Signal;HPM_P1;HPM_P2
2023/04/29 00:07:37;;;;;;;5.00;2.50;;;12.30;99.90;;;;;;4997555;28;20464;-71
2023/04/29 00:10:03;;;;;;;4.88;2.70;;;11.80;99.90;;;;;;4973855;28;20443;-71
2023/04/29 00:12:31;;;;;;;4.73;2.87;;;11.80;99.90;;;;;;4973629;28;20515;-71
2023/04/29 00:14:58;;;;;;;5.80;2.67;;;11.80;99.90;;;;;;4981090;28;20431;-71
2023/04/29 00:17:24;;;;;;;4.95;2.90;;;11.80;99.90;;;;;;4974197;28;20446;-73
2023/04/29 00:19:50;;;;;;;5.88;2.70;;;11.90;99.90;;;;;;5062829;28;20793;-71
2023/04/29 00:22:16;;;;;;;5.00;3.00;;;11.90;99.90;;;;;;4985904;28;20435;-71
2023/04/29 00:24:42;;;;;;;5.03;2.90;;;12.00;99.90;;;;;;4983128;28;20511;-71
2023/04/29 00:27:10;;;;;;;5.15;3.08;;;12.10;99.90;;;;;;4978806;28;20772;-72
2023/04/29 00:29:37;;;;;;;4.85;2.97;;;12.10;99.90;;;;;;5005335;28;20425;-71
2023/04/29 00:32:04;;;;;;;4.35;2.88;;;12.10;99.90;;;;;;4979181;28;20499;-72
2023/04/29 00:34:30;;;;;;;4.73;3.07;;;12.10;99.90;;;;;;5008690;28;20427;-72
2023/04/29 00:36:56;;;;;;;5.95;3.05;;;12.20;99.90;;;;;;4982273;28;20932;-72
2023/04/29 00:39:22;;;;;;;4.70;3.13;;;12.20;99.90;;;;;;4979322;28;20977;-71
2023/04/29 00:41:49;;;;;;;4.82;3.28;;;12.20;99.90;;;;;;5063577;28;20407;-72
2023/04/29 00:44:16;;;;;;;6.07;3.03;;;12.20;99.90;;;;;;4996056;28;20475;-71
2023/04/29 00:46:42;;;;;;;10.50;3.78;;;12.20;99.90;;;;;;5062182;28;20487;-72
2023/04/29 00:49:12;;;;;;;11.30;3.90;;;12.20;99.90;;;;;;4978772;28;20929;-71
2023/04/29 00:51:40;;;;;;;11.98;4.80;;;12.30;99.90;;;;;;4976161;28;20435;-72
2023/04/29 00:54:07;;;;;;;10.48;4.60;;;12.30;99.90;;;;;;4977675;28;20434;-74
2023/04/29 00:56:40;;;;;;;9.65;3.42;;;12.20;99.90;;;;;;4976696;28;20421;-73
2023/04/29 00:59:08;;;;;;;6.60;3.30;;;11.90;99.90;;;;;;5008465;28;20468;-73
2023/04/29 01:01:35;;;;;;;8.95;3.38;;;11.70;99.90;;;;;;4974293;28;20425;-73
2023/04/29 01:04:04;;;;;;;6.60;3.03;;;11.70;99.90;;;;;;4967455;28;20904;-73
2023/04/29 01:06:49;;;;;;;6.70;3.20;;;11.60;99.90;;;;;;4997633;28;20420;-73
2023/04/29 01:09:46;;;;;;;4.82;2.70;;;11.60;99.90;;;;;;4967516;28;20434;-73
2023/04/29 01:12:30;;;;;;;4.60;2.50;;;11.50;99.90;;;;;;4964046;28;20420;-71
2023/04/29 01:15:21;;;;;;;5.97;2.80;;;11.30;99.90;;;;;;4957682;28;20432;-73
2023/04/29 01:17:59;;;;;;;4.20;2.60;;;11.30;99.90;;;;;;4969493;28;20434;-73
2023/04/29 01:20:27;;;;;;;5.60;2.72;;;11.30;99.90;;;;;;4963538;28;20522;-74
2023/04/29 01:22:53;;;;;;;5.10;2.85;;;11.30;99.90;;;;;;4962893;28;20421;-75
2023/04/29 01:25:19;;;;;;;6.70;3.15;;;11.30;99.90;;;;;;4953240;28;20946;-72
2023/04/29 01:28:28;;;;;;;4.13;2.88;;;11.30;99.90;;;;;;4960821;28;20424;-75
2023/04/29 01:31:23;;;;;;;3.88;2.90;;;11.30;99.90;;;;;;4966929;28;20479;-74
2023/04/29 01:33:59;;;;;;;4.82;2.60;;;11.20;99.90;;;;;;4973706;28;20427;-74
2023/04/29 01:37:01;;;;;;;3.72;2.60;;;11.20;99.90;;;;;;4994212;28;20428;-74
2023/04/29 01:39:56;;;;;;;3.60;2.60;;;11.20;99.90;;;;;;4960115;28;21169;-73
2023/04/29 01:42:45;;;;;;;3.53;2.80;;;11.10;99.90;;;;;;4961912;28;20499;-74
2023/04/29 01:45:20;;;;;;;4.35;2.65;;;11.20;99.90;;;;;;4961287;28;20425;-74
2023/04/29 01:47:51;;;;;;;3.13;2.83;;;11.30;99.90;;;;;;4959627;28;20429;-74
2023/04/29 01:50:17;;;;;;;4.68;2.80;;;11.20;99.90;;;;;;4984861;28;20455;-74
2023/04/29 01:52:44;;;;;;;3.65;2.60;;;11.00;99.90;;;;;;4963169;28;20432;-71
2023/04/29 01:55:10;;;;;;;3.88;2.72;;;11.10;99.90;;;;;;4959945;28;20445;-74
2023/04/29 01:57:37;;;;;;;4.63;2.70;;;11.20;99.90;;;;;;4957306;28;20462;-74
2023/04/29 02:00:03;;;;;;;4.85;2.45;;;11.20;99.90;;;;;;4961600;28;21090;-74
2023/04/29 02:02:29;;;;;;;3.58;2.60;;;11.00;99.90;;;;;;4981055;28;20428;-74
2023/04/29 02:04:56;;;;;;;3.30;2.65;;;10.90;99.90;;;;;;4962431;28;20477;-74
2023/04/29 02:07:22;;;;;;;3.07;2.40;;;10.90;99.90;;;;;;4962780;28;20420;-74
2023/04/29 02:09:48;;;;;;;3.08;2.33;;;10.80;99.90;;;;;;4988918;28;20424;-74
2023/04/29 02:12:14;;;;;;;3.13;2.47;;;10.70;99.90;;;;;;4977092;28;20501;-74
2023/04/29 02:14:41;;;;;;;5.32;3.00;;;10.80;99.90;;;;;;4958741;28;20438;-74
2023/04/29 02:17:07;;;;;;;4.43;2.63;;;10.80;99.90;;;;;;4988694;28;20419;-74
2023/04/29 02:19:34;;;;;;;3.47;2.50;;;10.80;99.90;;;;;;4957724;28;20457;-74
2023/04/29 02:22:00;;;;;;;3.42;2.60;;;10.70;99.90;;;;;;4986449;28;20440;-74
2023/04/29 02:24:26;;;;;;;4.38;2.63;;;10.70;99.90;;;;;;4957171;28;20482;-74
2023/04/29 02:26:52;;;;;;;3.53;2.75;;;10.80;99.90;;;;;;4959704;28;20433;-74
2023/04/29 02:29:19;;;;;;;3.10;2.33;;;10.70;99.90;;;;;;4960393;28;20426;-71
2023/04/29 02:31:45;;;;;;;3.58;2.50;;;10.60;99.90;;;;;;4960283;28;20848;-71
2023/04/29 02:34:11;;;;;;;4.95;2.50;;;10.50;99.90;;;;;;4959870;28;20557;-74
2023/04/29 02:36:38;;;;;;;3.67;2.45;;;10.50;99.90;;;;;;4940266;28;20424;-74
2023/04/29 02:39:04;;;;;;;3.65;2.40;;;10.50;99.90;;;;;;4959134;28;20510;-71
2023/04/29 02:41:30;;;;;;;3.10;2.53;;;10.50;99.90;;;;;;4962093;28;20502;-74
2023/04/29 02:43:56;;;;;;;2.93;2.47;;;10.40;99.90;;;;;;4960478;28;20428;-71
2023/04/29 02:46:23;;;;;;;2.97;2.30;;;10.40;99.90;;;;;;4952215;28;20559;-74
2023/04/29 02:48:49;;;;;;;3.55;2.25;;;10.40;99.90;;;;;;4976632;28;20430;-74
2023/04/29 02:51:15;;;;;;;2.77;2.10;;;10.30;99.90;;;;;;4986516;28;20953;-74
2023/04/29 02:53:41;;;;;;;2.35;2.15;;;10.30;99.90;;;;;;4960773;28;20428;-71
2023/04/29 02:56:08;;;;;;;2.55;2.20;;;10.20;99.90;;;;;;4959143;28;20930;-74
2023/04/29 02:58:34;;;;;;;2.78;2.45;;;10.20;99.90;;;;;;4956832;28;22323;-74
2023/04/29 03:01:01;;;;;;;3.67;2.20;;;10.30;99.90;;;;;;4961094;28;20432;-74
2023/04/29 03:03:27;;;;;;;2.63;2.20;;;10.30;99.90;;;;;;4959539;28;20842;-74
2023/04/29 03:05:53;;;;;;;2.55;2.35;;;10.30;99.90;;;;;;4967808;28;20478;-71
2023/04/29 03:08:19;;;;;;;2.70;2.20;;;10.30;99.90;;;;;;4957961;28;20520;-74
2023/04/29 03:10:46;;;;;;;2.65;2.00;;;10.30;99.90;;;;;;4986499;28;21057;-74
2023/04/29 03:13:12;;;;;;;3.20;2.35;;;10.30;99.90;;;;;;4959084;28;20418;-74
2023/04/29 03:15:39;;;;;;;3.22;2.42;;;10.40;99.90;;;;;;4958858;28;20424;-74
2023/04/29 03:18:05;;;;;;;3.87;2.20;;;10.40;99.90;;;;;;4958265;28;21066;-74
2023/04/29 03:20:31;;;;;;;5.32;2.17;;;10.40;99.90;;;;;;4957617;28;20425;-74
2023/04/29 03:22:59;;;;;;;3.97;2.33;;;10.40;99.90;;;;;;4958977;28;20424;-74
2023/04/29 03:25:25;;;;;;;3.70;2.10;;;10.40;99.90;;;;;;4960066;28;20427;-74
2023/04/29 03:27:52;;;;;;;3.20;2.10;;;10.30;99.90;;;;;;4950173;28;21195;-74
2023/04/29 03:30:18;;;;;;;2.70;2.20;;;10.40;99.90;;;;;;4960305;28;20610;-74
2023/04/29 03:32:44;;;;;;;3.35;2.30;;;10.40;99.90;;;;;;4961350;28;21048;-74
2023/04/29 03:35:10;;;;;;;3.50;2.38;;;10.50;99.90;;;;;;4960304;28;20428;-74
2023/04/29 03:37:37;;;;;;;2.78;2.33;;;10.60;99.90;;;;;;4952982;28;20429;-74
2023/04/29 03:40:05;;;;;;;2.60;2.30;;;10.60;99.90;;;;;;4955568;28;20509;-74
2023/04/29 03:42:31;;;;;;;4.78;2.50;;;10.70;99.90;;;;;;4953873;28;20953;-74
2023/04/29 03:44:58;;;;;;;3.67;2.50;;;10.70;99.90;;;;;;4964376;28;21264;-74
2023/04/29 03:47:24;;;;;;;3.53;2.50;;;10.70;99.90;;;;;;4953682;28;20434;-74
2023/04/29 03:49:50;;;;;;;3.07;2.37;;;10.80;99.90;;;;;;4967273;28;20415;-71
2023/04/29 03:52:17;;;;;;;4.05;2.42;;;10.90;99.90;;;;;;4971322;28;20479;-74
2023/04/29 03:54:44;;;;;;;3.00;2.30;;;10.90;99.90;;;;;;4958284;28;20551;-74
2023/04/29 03:57:10;;;;;;;3.40;2.40;;;10.90;99.90;;;;;;4954311;28;20950;-74
2023/04/29 03:59:36;;;;;;;2.60;2.40;;;10.90;99.90;;;;;;5042384;28;20418;-74
2023/04/29 04:02:02;;;;;;;3.10;2.38;;;11.00;99.90;;;;;;4994584;28;20456;-74
2023/04/29 04:04:28;;;;;;;3.35;2.40;;;11.00;99.90;;;;;;4963593;28;20430;-74
2023/04/29 04:06:55;;;;;;;3.25;2.35;;;11.10;99.90;;;;;;4959144;28;20416;-73
2023/04/29 04:09:22;;;;;;;2.72;2.30;;;11.10;99.90;;;;;;4985828;28;20417;-73
2023/04/29 04:11:48;;;;;;;3.20;2.47;;;11.20;99.90;;;;;;4959326;28;20432;-74
2023/04/29 04:14:14;;;;;;;3.42;2.42;;;11.20;99.90;;;;;;4954717;28;20456;-73
2023/04/29 04:16:40;;;;;;;2.92;2.47;;;11.30;99.90;;;;;;4958224;28;20436;-73
2023/04/29 04:19:07;;;;;;;3.10;2.20;;;11.30;99.90;;;;;;4957626;28;20485;-73
2023/04/29 04:21:34;;;;;;;3.70;2.20;;;11.40;99.90;;;;;;4974024;28;20556;-73
2023/04/29 04:24:00;;;;;;;2.60;2.17;;;11.40;99.90;;;;;;4988741;28;20953;-73
2023/04/29 04:26:28;;;;;;;3.03;2.15;;;11.40;99.90;;;;;;4953267;28;20437;-73
2023/04/29 04:28:54;;;;;;;3.38;2.13;;;11.50;99.90;;;;;;4975825;28;20413;-73
2023/04/29 04:31:20;;;;;;;5.50;2.20;;;11.50;99.90;;;;;;4953799;28;21067;-73
2023/04/29 04:33:46;;;;;;;2.30;2.10;;;11.50;99.90;;;;;;4945496;28;20418;-73
2023/04/29 04:36:13;;;;;;;3.55;2.25;;;11.50;99.90;;;;;;4952778;28;20834;-73
2023/04/29 04:38:39;;;;;;;4.00;2.47;;;11.60;99.90;;;;;;4972145;28;21172;-73
2023/04/29 04:41:08;;;;;;;4.50;2.22;;;11.60;99.90;;;;;;4953582;28;20932;-73
2023/04/29 04:43:34;;;;;;;3.90;2.17;;;11.60;99.90;;;;;;4959746;28;20432;-73
2023/04/29 04:46:12;;;;;;;4.10;2.30;;;11.80;99.90;;;;;;4958199;28;20421;-73
2023/04/29 04:48:38;;;;;;;3.15;2.10;;;11.80;99.90;;;;;;4956138;28;20444;-74
2023/04/29 04:51:12;;;;;;;3.30;2.10;;;12.00;99.90;;;;;;4962627;28;20521;-73
2023/04/29 04:53:40;;;;;;;2.88;2.30;;;12.20;99.90;;;;;;4971855;28;21019;-73
2023/04/29 04:56:07;;;;;;;2.90;2.10;;;12.20;99.90;;;;;;4962134;28;20449;-73
2023/04/29 04:58:33;;;;;;;2.78;2.10;;;12.30;99.90;;;;;;4992758;28;20453;-73
2023/04/29 05:01:00;;;;;;;5.00;2.20;;;12.30;99.90;;;;;;4961912;28;20567;-73
2023/04/29 05:03:26;;;;;;;3.10;2.10;;;12.40;99.90;;;;;;4975994;28;20433;-73
2023/04/29 05:05:57;;;;;;;4.50;2.40;;;12.40;99.90;;;;;;4960016;28;20485;-73
2023/04/29 05:08:25;;;;;;;3.30;2.28;;;12.50;99.90;;;;;;4953829;28;20432;-73
2023/04/29 05:10:52;;;;;;;2.95;2.40;;;12.50;99.90;;;;;;4957976;28;20519;-73
2023/04/29 05:13:19;;;;;;;4.07;2.40;;;12.50;99.90;;;;;;4990716;28;20428;-74
2023/04/29 05:15:45;;;;;;;3.60;2.10;;;12.60;99.90;;;;;;4960072;28;20432;-73
2023/04/29 05:18:12;;;;;;;3.40;2.10;;;12.60;99.90;;;;;;4977912;28;20430;-73
2023/04/29 05:20:38;;;;;;;2.58;2.00;;;12.60;99.90;;;;;;4963183;28;20421;-73
2023/04/29 05:23:05;;;;;;;3.95;2.15;;;12.60;99.90;;;;;;4955623;28;20427;-73
2023/04/29 05:25:31;;;;;;;4.22;2.10;;;12.70;99.90;;;;;;4972708;28;20424;-73
2023/04/29 05:27:57;;;;;;;4.07;2.30;;;12.70;99.90;;;;;;4942908;28;20788;-73
2023/04/29 05:30:24;;;;;;;2.90;2.25;;;12.70;99.90;;;;;;4961320;28;20833;-73
2023/04/29 05:32:50;;;;;;;3.17;2.10;;;12.80;99.90;;;;;;4980441;28;20917;-73
2023/04/29 05:35:17;;;;;;;2.60;2.20;;;12.90;99.90;;;;;;4959522;28;22895;-73
2023/04/29 05:37:43;;;;;;;4.15;2.10;;;13.00;99.90;;;;;;4964229;28;20507;-73
2023/04/29 05:40:10;;;;;;;3.53;2.00;;;13.00;99.90;;;;;;4961757;28;20416;-74
2023/04/29 05:42:36;;;;;;;3.00;2.00;;;13.00;99.90;;;;;;4981734;28;20430;-73
2023/04/29 05:45:02;;;;;;;3.70;2.30;;;13.10;99.90;;;;;;4962196;28;20793;-74
2023/04/29 05:47:28;;;;;;;4.45;2.10;;;13.10;99.90;;;;;;4955942;28;20507;-73
2023/04/29 05:49:55;;;;;;;2.50;1.90;;;13.10;99.90;;;;;;4991042;28;20418;-73
2023/04/29 05:52:22;;;;;;;3.30;2.10;;;13.10;99.90;;;;;;4959893;28;20499;-73
2023/04/29 05:54:48;;;;;;;2.63;2.00;;;13.10;99.90;;;;;;4955559;28;20436;-73
2023/04/29 05:57:14;;;;;;;2.70;2.05;;;13.00;99.90;;;;;;4959791;28;20431;-74
2023/04/29 05:59:40;;;;;;;3.25;1.83;;;12.90;99.90;;;;;;4959668;28;20443;-73
2023/04/29 06:02:06;;;;;;;3.17;2.05;;;12.90;99.90;;;;;;4954829;28;20429;-74
2023/04/29 06:04:33;;;;;;;2.88;1.95;;;12.90;99.90;;;;;;4956533;28;20423;-73
2023/04/29 06:06:59;;;;;;;3.45;2.00;;;12.90;99.90;;;;;;4972783;28;20439;-73
2023/04/29 06:09:25;;;;;;;2.42;1.85;;;13.00;99.90;;;;;;4957796;28;20432;-73
2023/04/29 06:11:52;;;;;;;2.40;1.90;;;12.90;99.90;;;;;;4961475;28;20424;-74
2023/04/29 06:14:18;;;;;;;3.10;2.00;;;12.80;99.90;;;;;;4973623;28;20428;-73
2023/04/29 06:16:44;;;;;;;4.07;1.80;;;12.70;99.90;;;;;;4988289;28;21111;-73
2023/04/29 06:19:11;;;;;;;2.87;1.70;;;12.60;99.90;;;;;;4960336;28;20465;-73
2023/04/29 06:21:39;;;;;;;2.15;1.92;;;12.50;99.90;;;;;;4954583;28;20420;-73
2023/04/29 06:24:06;;;;;;;3.47;2.07;;;12.40;99.90;;;;;;4977303;28;20435;-74
2023/04/29 06:26:32;;;;;;;2.33;2.00;;;12.30;99.90;;;;;;4974086;28;20805;-73
2023/04/29 06:28:59;;;;;;;2.67;1.90;;;12.20;99.90;;;;;;4987028;28;20490;-74
2023/04/29 06:31:25;;;;;;;2.33;2.00;;;12.20;99.90;;;;;;4973207;28;20634;-73
2023/04/29 06:33:51;;;;;;;2.50;1.98;;;12.00;99.90;;;;;;4958425;28;21369;-73
2023/04/29 06:36:18;;;;;;;2.50;2.00;;;11.90;99.90;;;;;;4957690;28;20420;-73
2023/04/29 06:38:44;;;;;;;2.47;1.92;;;11.80;99.90;;;;;;4960932;28;20847;-73
2023/04/29 06:41:10;;;;;;;2.60;2.20;;;11.80;99.90;;;;;;4957315;28;20426;-73
2023/04/29 06:43:36;;;;;;;3.30;2.35;;;11.80;99.90;;;;;;4957726;28;21051;-73
2023/04/29 06:46:03;;;;;;;4.20;2.30;;;11.60;99.90;;;;;;4974893;28;20710;-73
2023/04/29 06:48:29;;;;;;;2.47;2.05;;;11.60;99.90;;;;;;4960705;28;20763;-73
2023/04/29 06:50:57;;;;;;;2.60;2.10;;;11.60;99.90;;;;;;4956408;28;20421;-73
2023/04/29 06:53:24;;;;;;;2.90;1.93;;;11.70;99.90;;;;;;4972050;28;20483;-74
2023/04/29 06:55:50;;;;;;;4.07;2.20;;;11.60;99.90;;;;;;4959145;28;20441;-73
2023/04/29 06:58:18;;;;;;;2.80;2.28;;;11.60;99.90;;;;;;4959699;28;20515;-73
2023/04/29 07:00:49;;;;;;;3.03;2.00;;;11.70;99.90;;;;;;4958556;28;20424;-73
2023/04/29 07:03:17;;;;;;;3.30;2.13;;;11.70;99.90;;;;;;5040404;28;21188;-73
2023/04/29 07:05:44;;;;;;;2.58;2.25;;;11.70;99.90;;;;;;4964209;28;20481;-73
2023/04/29 07:08:12;;;;;;;3.60;2.60;;;11.70;99.90;;;;;;4974954;28;20416;-73
2023/04/29 07:10:38;;;;;;;5.15;3.15;;;11.70;99.90;;;;;;4960019;28;20439;-73
2023/04/29 07:13:05;;;;;;;5.05;3.10;;;11.70;99.90;;;;;;4958860;28;20478;-73
2023/04/29 07:15:35;;;;;;;6.45;3.35;;;11.70;99.90;;;;;;4945859;28;20438;-73
2023/04/29 07:18:04;;;;;;;5.43;3.38;;;11.80;99.90;;;;;;4958316;28;20418;-73
2023/04/29 07:20:30;;;;;;;5.65;3.30;;;11.80;99.90;;;;;;4979536;28;20446;-73
2023/04/29 07:22:56;;;;;;;14.18;5.68;;;11.80;99.90;;;;;;4955318;28;20929;-73
2023/04/29 07:25:23;;;;;;;14.40;5.93;;;11.80;99.90;;;;;;4952824;28;20929;-73
2023/04/29 07:27:49;;;;;;;10.85;4.80;;;11.80;99.90;;;;;;4952563;28;20476;-73
2023/04/29 07:30:15;;;;;;;10.55;4.60;;;11.80;99.90;;;;;;4957381;28;20430;-73
2023/04/29 07:32:41;;;;;;;16.35;5.95;;;11.80;99.90;;;;;;4962050;28;20430;-73
2023/04/29 07:35:08;;;;;;;15.18;6.47;;;11.80;99.90;;;;;;4953430;28;20440;-74
2023/04/29 07:37:34;;;;;;;19.90;7.90;;;11.80;99.90;;;;;;4955489;28;20424;-73
2023/04/29 07:40:00;;;;;;;23.08;9.02;;;11.80;99.90;;;;;;4958545;28;20836;-73
2023/04/29 07:42:27;;;;;;;17.87;7.07;;;11.80;99.90;;;;;;4940755;28;20611;-73
2023/04/29 07:44:53;;;;;;;10.38;4.32;;;11.80;99.90;;;;;;4959437;28;20425;-73
2023/04/29 07:47:19;;;;;;;6.35;3.20;;;11.80;99.90;;;;;;4967398;28;20432;-73
2023/04/29 07:49:45;;;;;;;5.03;2.92;;;11.70;99.90;;;;;;4956842;28;20443;-73
2023/04/29 07:52:12;;;;;;;7.05;3.03;;;11.70;99.90;;;;;;4959331;28;20428;-73
2023/04/29 07:54:38;;;;;;;5.97;3.05;;;11.70;99.90;;;;;;4987730;28;20999;-73
2023/04/29 07:57:05;;;;;;;5.47;3.27;;;11.80;99.90;;;;;;4952934;28;20455;-73
2023/04/29 07:59:31;;;;;;;9.83;4.20;;;11.80;99.90;;;;;;4955008;28;20429;-73
2023/04/29 08:01:58;;;;;;;8.15;4.40;;;11.80;99.90;;;;;;4960477;28;20855;-74
2023/04/29 08:04:24;;;;;;;9.48;4.30;;;11.80;99.90;;;;;;4969525;28;20419;-73
2023/04/29 08:06:51;;;;;;;7.90;4.00;;;11.80;99.90;;;;;;4965427;28;20435;-73
2023/04/29 08:09:17;;;;;;;7.03;4.20;;;11.70;99.90;;;;;;4953397;28;20471;-73
2023/04/29 08:11:44;;;;;;;9.90;4.28;;;11.70;99.90;;;;;;4954237;28;20433;-74
2023/04/29 08:14:11;;;;;;;4.57;3.37;;;11.60;99.90;;;;;;4960012;28;20484;-73
2023/04/29 08:16:37;;;;;;;4.53;3.35;;;11.50;99.90;;;;;;4958546;28;20523;-73
2023/04/29 08:19:03;;;;;;;5.53;3.30;;;11.30;99.90;;;;;;4978968;28;20410;-73
2023/04/29 08:21:31;;;;;;;6.43;2.90;;;11.20;99.90;;;;;;4970787;28;20414;-73
2023/04/29 08:23:57;;;;;;;5.93;2.92;;;10.90;99.90;;;;;;4969540;28;20910;-73
2023/04/29 08:26:24;;;;;;;3.92;2.40;;;10.80;99.90;;;;;;4990048;28;20490;-71
2023/04/29 08:28:51;;;;;;;4.00;2.50;;;10.60;99.90;;;;;;4948966;28;20423;-73
2023/04/29 08:31:19;;;;;;;3.10;2.40;;;10.30;99.90;;;;;;4960899;28;20431;-73
2023/04/29 08:33:47;;;;;;;7.13;3.55;;;10.30;99.90;;;;;;4990916;28;20990;-73
2023/04/29 08:36:13;;;;;;;9.98;4.55;;;10.40;99.90;;;;;;4957605;28;20844;-73
2023/04/29 08:38:39;;;;;;;5.55;3.45;;;10.40;99.90;;;;;;4946026;28;20416;-74
2023/04/29 08:41:09;;;;;;;12.20;4.32;;;10.40;99.90;;;;;;4964146;28;20438;-73
2023/04/29 08:43:36;;;;;;;5.97;3.30;;;10.40;99.90;;;;;;4961960;28;20421;-73
2023/04/29 08:46:06;;;;;;;4.32;1.95;;;10.10;99.90;;;;;;4987405;28;20460;-73
2023/04/29 08:48:35;;;;;;;3.60;1.70;;;10.00;99.90;;;;;;5042333;28;20868;-73
2023/04/29 08:51:02;;;;;;;2.53;1.70;;;9.80;99.90;;;;;;4962830;28;20429;-73
2023/04/29 08:53:29;;;;;;;2.33;1.63;;;9.80;99.90;;;;;;4966597;28;20424;-73
2023/04/29 08:56:02;;;;;;;1.90;1.65;;;9.70;99.90;;;;;;4961087;28;20434;-73
2023/04/29 08:58:33;;;;;;;2.23;1.50;;;9.90;99.90;;;;;;4966130;28;20814;-73
2023/04/29 09:00:59;;;;;;;2.35;1.77;;;10.00;99.90;;;;;;4960046;28;20433;-73
2023/04/29 09:04:30;;;;;;;3.67;1.90;;;10.10;99.90;;;;;;4942036;28;20417;-74
2023/04/29 09:06:58;;;;;;;4.85;2.20;;;10.30;99.90;;;;;;4955840;28;20432;-73
2023/04/29 09:09:26;;;;;;;2.97;1.70;;;10.60;99.90;;;;;;4961640;28;20536;-73
2023/04/29 09:11:53;;;;;;;3.67;1.58;;;10.70;99.90;;;;;;4957052;28;20435;-73
2023/04/29 09:14:23;;;;;;;2.83;1.50;;;10.80;99.90;;;;;;4992352;28;20927;-73
2023/04/29 09:16:50;;;;;;;1.75;1.40;;;11.00;99.90;;;;;;4995337;28;20488;-73
2023/04/29 09:19:35;;;;;;;2.28;1.50;;;11.30;99.90;;;;;;4964407;28;20424;-73
2023/04/29 09:22:04;;;;;;;3.40;2.10;;;11.70;99.90;;;;;;4961418;28;21154;-73
2023/04/29 09:24:31;;;;;;;7.38;3.00;;;12.10;99.90;;;;;;4950928;28;20423;-73
2023/04/29 09:26:58;;;;;;;6.13;2.88;;;12.50;99.90;;;;;;4961277;28;20910;-74
2023/04/29 09:29:25;;;;;;;4.10;2.30;;;12.70;99.90;;;;;;4964806;28;20432;-73
2023/04/29 09:31:56;;;;;;;4.38;1.73;;;13.00;99.90;;;;;;4953039;28;20442;-73
2023/04/29 09:34:39;;;;;;;3.17;1.25;;;13.30;99.90;;;;;;4954587;28;20434;-73
2023/04/29 09:37:25;;;;;;;1.33;1.15;;;13.50;99.90;;;;;;4956071;28;20814;-73
2023/04/29 09:39:51;;;;;;;2.20;1.20;;;13.70;99.90;;;;;;4957318;28;20444;-73
2023/04/29 09:42:17;;;;;;;2.00;1.10;;;13.80;99.90;;;;;;4964648;28;20462;-73
2023/04/29 09:44:44;;;;;;;2.13;1.15;;;14.00;99.90;;;;;;4960051;28;20420;-73
2023/04/29 09:47:12;;;;;;;3.25;1.50;;;14.10;99.90;;;;;;4955192;28;20418;-71
2023/04/29 09:49:44;;;;;;;2.03;1.20;;;14.20;99.90;;;;;;4955420;28;20467;-73
2023/04/29 09:52:17;;;;;;;1.33;1.02;;;14.30;99.90;;;;;;4962206;28;20793;-73
2023/04/29 09:54:44;;;;;;;3.80;1.40;;;14.40;99.90;;;;;;4946220;28;20922;-74
2023/04/29 09:57:14;;;;;;;1.80;1.20;;;14.50;99.90;;;;;;4960845;28;20501;-73
2023/04/29 09:59:42;;;;;;;1.38;1.08;;;14.40;99.90;;;;;;4954043;28;20463;-73
2023/04/29 10:02:17;;;;;;;4.07;1.40;;;14.40;99.90;;;;;;4955189;28;20455;-73
2023/04/29 10:04:57;;;;;;;1.77;1.17;;;14.50;99.90;;;;;;4958376;28;20523;-73
2023/04/29 10:07:27;;;;;;;2.53;1.27;;;14.70;99.90;;;;;;4959465;28;20869;-72
2023/04/29 10:09:55;;;;;;;2.15;1.40;;;14.80;99.90;;;;;;4957688;28;20479;-72
2023/04/29 10:12:22;;;;;;;2.27;1.20;;;14.80;99.90;;;;;;4967328;28;21117;-72
2023/04/29 10:15:28;;;;;;;3.17;1.42;;;14.80;99.90;;;;;;4952425;28;21176;-74
2023/04/29 10:18:25;;;;;;;2.42;1.40;;;14.80;99.90;;;;;;4972847;28;20434;-72
2023/04/29 10:20:54;;;;;;;1.50;1.00;;;14.80;99.90;;;;;;4957896;28;20426;-74
2023/04/29 10:23:22;;;;;;;2.10;1.02;;;14.70;99.90;;;;;;4958874;28;20613;-73
2023/04/29 10:25:52;;;;;;;3.67;1.40;;;14.70;99.90;;;;;;4977242;28;20903;-73
2023/04/29 10:28:22;;;;;;;1.48;1.15;;;14.70;99.90;;;;;;4960075;28;20434;-74
2023/04/29 10:30:56;;;;;;;1.65;1.10;;;14.70;99.90;;;;;;4985626;28;20859;-74
2023/04/29 10:33:26;;;;;;;4.33;1.90;;;14.80;99.90;;;;;;4959475;28;20503;-73
2023/04/29 10:35:54;;;;;;;2.35;1.23;;;14.80;99.90;;;;;;4982068;28;20429;-73
2023/04/29 10:38:40;;;;;;;1.30;1.00;;;14.80;99.90;;;;;;4991210;28;20418;-73
2023/04/29 10:41:24;;;;;;;5.45;1.73;;;14.90;99.90;;;;;;4964120;28;20442;-73
2023/04/29 10:43:54;;;;;;;5.22;2.38;;;14.90;99.90;;;;;;4962014;28;20487;-73
2023/04/29 10:46:25;;;;;;;5.90;2.77;;;15.00;99.90;;;;;;4980232;28;20418;-73
2023/04/29 10:49:03;;;;;;;3.88;1.80;;;15.00;99.90;;;;;;4975081;28;20452;-73
2023/04/29 10:51:38;;;;;;;2.72;1.60;;;15.10;99.90;;;;;;4955572;28;20427;-73
2023/04/29 10:54:13;;;;;;;1.90;1.30;;;15.20;99.90;;;;;;4989984;28;20423;-73
2023/04/29 10:56:49;;;;;;;2.10;1.10;;;15.30;99.90;;;;;;4955372;28;20522;-73
2023/04/29 10:59:43;;;;;;;1.92;0.90;;;15.40;99.90;;;;;;4961315;28;20423;-73
2023/04/29 11:02:14;;;;;;;1.52;0.95;;;15.50;99.90;;;;;;4965616;28;20622;-73
2023/04/29 11:05:11;;;;;;;1.65;1.00;;;15.70;99.90;;;;;;4954343;28;20428;-73
2023/04/29 11:07:37;;;;;;;1.73;1.00;;;15.70;99.90;;;;;;4978651;28;20420;-73
2023/04/29 11:10:04;;;;;;;1.63;1.20;;;15.80;99.90;;;;;;4960767;28;21233;-73
2023/04/29 11:12:30;;;;;;;1.58;1.02;;;15.90;99.90;;;;;;4962579;28;20427;-73
2023/04/29 11:15:04;;;;;;;3.70;1.30;;;15.90;99.90;;;;;;4962475;28;20532;-73
2023/04/29 11:17:37;;;;;;;4.53;1.40;;;16.00;99.90;;;;;;4955568;28;20432;-73
2023/04/29 11:20:08;;;;;;;4.35;1.70;;;16.00;99.90;;;;;;4962676;28;20466;-73
2023/04/29 11:22:34;;;;;;;3.67;1.40;;;16.10;99.90;;;;;;4954090;28;20420;-73
2023/04/29 11:25:07;;;;;;;4.82;1.67;;;16.10;99.90;;;;;;5043599;28;20534;-73
2023/04/29 11:27:41;;;;;;;3.85;1.70;;;16.10;99.90;;;;;;4987204;28;20435;-73
2023/04/29 11:30:08;;;;;;;5.80;1.60;;;16.20;99.90;;;;;;4959593;28;20428;-73
2023/04/29 11:32:41;;;;;;;5.05;1.65;;;16.20;99.90;;;;;;4973583;28;20416;-73
2023/04/29 11:35:13;;;;;;;4.03;1.70;;;16.20;99.90;;;;;;4989093;28;20554;-73
2023/04/29 11:37:41;;;;;;;5.03;1.73;;;16.10;99.90;;;;;;4978339;28;20432;-73
2023/04/29 11:40:10;;;;;;;5.45;1.60;;;16.00;99.90;;;;;;4956669;28;20842;-73
2023/04/29 11:42:44;;;;;;;6.20;1.92;;;15.80;99.90;;;;;;4957795;28;20510;-73
2023/04/29 11:45:11;;;;;;;3.42;1.70;;;15.70;99.90;;;;;;4957749;28;20422;-73
2023/04/29 11:47:47;;;;;;;4.13;1.70;;;15.60;99.90;;;;;;4954911;28;21001;-73
2023/04/29 11:50:16;;;;;;;6.00;1.80;;;15.50;99.90;;;;;;4958156;28;20436;-73
2023/04/29 11:52:45;;;;;;;6.55;1.90;;;15.40;99.90;;;;;;4966154;28;21144;-73
2023/04/29 11:55:11;;;;;;;5.37;1.77;;;15.40;99.90;;;;;;4977346;28;20431;-73
2023/04/29 11:57:39;;;;;;;4.45;1.70;;;15.30;99.90;;;;;;4955469;28;20537;-73
2023/04/29 12:00:11;;;;;;;5.18;1.80;;;15.30;99.90;;;;;;4995369;28;20821;-73
2023/04/29 12:02:37;;;;;;;3.28;1.52;;;15.30;99.90;;;;;;4967322;28;20424;-73
2023/04/29 12:05:07;;;;;;;3.42;1.50;;;15.30;99.90;;;;;;5026316;28;20427;-74
2023/04/29 12:07:36;;;;;;;5.93;1.90;;;15.40;99.90;;;;;;4950482;28;20424;-73
2023/04/29 12:10:02;;;;;;;3.88;1.70;;;15.40;99.90;;;;;;4975674;28;20444;-73
2023/04/29 12:12:33;;;;;;;5.00;1.75;;;15.40;99.90;;;;;;4957146;28;20444;-73
2023/04/29 12:15:01;;;;;;;4.83;1.80;;;15.50;99.90;;;;;;4980985;28;21128;-73
2023/04/29 12:17:28;;;;;;;3.78;1.80;;;15.60;99.90;;;;;;4961895;28;20447;-73
2023/04/29 12:19:55;;;;;;;3.87;1.50;;;15.60;99.90;;;;;;5045775;28;20414;-73
2023/04/29 12:22:21;;;;;;;4.00;1.67;;;15.70;99.90;;;;;;4979626;28;20780;-73
2023/04/29 12:24:49;;;;;;;4.28;1.50;;;15.70;99.90;;;;;;4988448;28;20407;-73
2023/04/29 12:27:17;;;;;;;2.78;1.42;;;15.70;99.90;;;;;;4956303;28;21016;-73
2023/04/29 12:29:45;;;;;;;4.82;1.52;;;15.70;99.90;;;;;;4960483;28;20801;-73
2023/04/29 12:32:22;;;;;;;4.00;1.60;;;15.70;99.90;;;;;;4947125;28;20416;-73
2023/04/29 12:34:53;;;;;;;3.92;1.60;;;15.90;99.90;;;;;;4960225;28;20428;-73
2023/04/29 12:37:25;;;;;;;2.97;1.50;;;16.00;99.90;;;;;;4967078;28;20440;-73
2023/04/29 12:39:53;;;;;;;2.90;1.48;;;16.00;99.90;;;;;;4956627;28;20423;-73
2023/04/29 12:42:19;;;;;;;3.38;1.40;;;16.00;99.90;;;;;;4984697;28;20424;-73
2023/04/29 12:44:47;;;;;;;3.70;1.35;;;16.00;99.90;;;;;;4971350;28;20439;-73
2023/04/29 12:47:15;;;;;;;3.10;1.40;;;16.10;99.90;;;;;;4975122;28;20422;-73
2023/04/29 12:49:46;;;;;;;2.15;1.25;;;16.30;99.90;;;;;;4953498;28;20484;-73
2023/04/29 12:52:13;;;;;;;2.45;1.20;;;16.40;99.90;;;;;;4957850;28;20483;-73
2023/04/29 12:54:42;;;;;;;5.00;1.45;;;16.30;99.90;;;;;;4952759;28;20457;-73
2023/04/29 12:57:10;;;;;;;4.47;1.42;;;16.40;99.90;;;;;;4951171;28;20906;-73
2023/04/29 12:59:36;;;;;;;3.60;1.50;;;16.40;99.90;;;;;;4952492;28;20422;-73
2023/04/29 13:02:03;;;;;;;3.92;1.48;;;16.60;99.90;;;;;;4963427;28;20426;-73